Long Grove, Iowa
Current Conditions -  °F | °C
As of 11:52 AM on Saturday 25 Oct 2014 (Local Time) from KDVN Reporting Station
Clear Clear  
Wind Chill: 68°   Ceiling: Unl
Heat Index: 68°   Visibility: 10mi
Dew Point: 36°   Wind: 16mph
Humidity: 31%   Direction: 340°NNW
Pressure: 30.05"   Gusts: NA
Location:  41.7°N, 90.58°W
Report Text: KDVN 251652Z AUTO 34014KT 10SM CLR 20/02 A3005 RMK AO2 SLP175 T02000022 TSNO
Loading
Personal Weather Stations






























Interactive Weather Map
Tropical Storm Tracking
New forecast layout! Learn more

10-Day Weather Forecast

Advertisements
Track Severe Weather on mobile